createdAt,value
2023-04-02T00:00:32.992Z,31
2023-04-02T00:01:39.764Z,33
2023-04-02T00:02:46.534Z,32
2023-04-02T00:03:58.411Z,32
2023-04-02T00:05:07.805Z,29
2023-04-02T00:06:17.274Z,36
2023-04-02T00:07:29.254Z,36
2023-04-02T00:08:36.078Z,31
2023-04-02T00:09:42.861Z,30
2023-04-02T00:10:49.608Z,34
2023-04-02T00:11:59.186Z,32
2023-04-02T00:13:14.146Z,32
2023-04-02T00:14:21.009Z,32
2023-04-02T00:15:27.781Z,32
2023-04-02T00:16:34.727Z,35
2023-04-02T00:17:41.575Z,33
2023-04-02T00:18:48.346Z,33
2023-04-02T00:19:55.072Z,33
2023-04-02T00:21:01.885Z,34
2023-04-02T00:22:18.857Z,30
2023-04-02T00:23:28.463Z,32
2023-04-02T00:24:35.206Z,32
2023-04-02T00:25:41.959Z,31
2023-04-02T00:26:48.735Z,30
2023-04-02T00:27:55.559Z,28
2023-04-02T00:29:02.394Z,29
2023-04-02T00:30:09.217Z,26
2023-04-02T00:31:16.122Z,26
2023-04-02T00:32:23.119Z,28
2023-04-02T00:33:34.952Z,27
2023-04-02T00:34:41.765Z,25
2023-04-02T00:35:48.683Z,26
2023-04-02T00:36:55.484Z,24
2023-04-02T00:38:02.529Z,24
2023-04-02T00:39:09.582Z,24
2023-04-02T00:40:21.404Z,26
2023-04-02T00:41:28.235Z,24
2023-04-02T00:42:35.066Z,23
2023-04-02T00:43:41.927Z,24
2023-04-02T00:44:48.830Z,24
2023-04-02T00:45:55.730Z,24
2023-04-02T00:47:05.166Z,25
2023-04-02T00:48:22.086Z,25
2023-04-02T00:49:34.632Z,26
2023-04-02T00:50:41.422Z,23
2023-04-02T00:51:48.353Z,24
2023-04-02T00:52:57.816Z,24
2023-04-02T00:54:04.553Z,24
2023-04-02T00:55:11.364Z,23
2023-04-02T00:56:23.208Z,23
2023-04-02T00:57:35.129Z,25
2023-04-02T00:58:41.912Z,23
2023-04-02T00:59:48.877Z,22
2023-04-02T01:01:01.570Z,22
2023-04-02T01:02:08.347Z,24
2023-04-02T01:03:18.165Z,22
2023-04-02T01:04:27.565Z,23
2023-04-02T01:05:37.448Z,22
2023-04-02T01:06:44.046Z,24
2023-04-02T01:07:50.819Z,21
2023-04-02T01:09:05.441Z,23
2023-04-02T01:10:22.355Z,22
2023-04-02T01:11:34.180Z,24
2023-04-02T01:12:46.052Z,23
2023-04-02T01:13:57.893Z,23
2023-04-02T01:15:12.687Z,23
2023-04-02T01:16:24.628Z,21
2023-04-02T01:17:34.462Z,25
2023-04-02T01:18:46.308Z,24
2023-04-02T01:20:00.949Z,25
2023-04-02T01:21:15.457Z,25
2023-04-02T01:22:28.219Z,29
2023-04-02T01:23:35.147Z,29
2023-04-02T01:24:49.936Z,29
2023-04-02T01:25:56.715Z,31
2023-04-02T01:27:11.648Z,28
2023-04-02T01:28:24.357Z,27
2023-04-02T01:29:31.165Z,27
2023-04-02T01:30:40.428Z,30
2023-04-02T01:31:47.232Z,27
2023-04-02T01:32:54.018Z,27
2023-04-02T01:34:00.863Z,24
2023-04-02T01:35:07.665Z,24
2023-04-02T01:36:14.408Z,23
2023-04-02T01:37:21.181Z,25
2023-04-02T01:38:30.878Z,24
2023-04-02T01:39:37.654Z,25
2023-04-02T01:40:54.565Z,23
2023-04-02T01:42:01.403Z,25
2023-04-02T01:43:16.379Z,25
2023-04-02T01:44:26.038Z,25
2023-04-02T01:45:33.091Z,21
2023-04-02T01:46:39.709Z,21
2023-04-02T01:47:46.527Z,21
2023-04-02T01:48:53.277Z,23
2023-04-02T01:50:00.284Z,22
2023-04-02T01:51:12.127Z,21
2023-04-02T01:52:23.963Z,21
2023-04-02T01:53:38.832Z,20
2023-04-02T01:54:45.681Z,20
2023-04-02T01:55:52.404Z,21
2023-04-02T01:56:59.172Z,22
2023-04-02T01:58:06.012Z,21
2023-04-02T01:59:12.802Z,21
2023-04-02T02:00:19.685Z,21
2023-04-02T02:01:26.482Z,21
2023-04-02T02:02:35.882Z,20
2023-04-02T02:03:42.636Z,20
2023-04-02T02:04:49.414Z,21
2023-04-02T02:05:56.183Z,20
2023-04-02T02:07:02.975Z,21
2023-04-02T02:08:09.810Z,20
2023-04-02T02:09:21.670Z,22
2023-04-02T02:10:28.451Z,20
2023-04-02T02:11:37.951Z,21
2023-04-02T02:12:44.663Z,21
2023-04-02T02:13:51.489Z,22
2023-04-02T02:15:03.393Z,22
2023-04-02T02:16:10.261Z,21
2023-04-02T02:17:17.036Z,23
2023-04-02T02:18:23.886Z,23
2023-04-02T02:19:30.691Z,24
2023-04-02T02:20:42.465Z,25
2023-04-02T02:21:49.284Z,24
2023-04-02T02:22:56.033Z,23
2023-04-02T02:24:02.806Z,24
2023-04-02T02:25:09.649Z,23
2023-04-02T02:26:16.463Z,25
2023-04-02T02:27:23.197Z,25
2023-04-02T02:28:29.926Z,24
2023-04-02T02:29:36.706Z,24
2023-04-02T02:30:43.561Z,23
2023-04-02T02:31:50.357Z,21
2023-04-02T02:32:57.167Z,24
2023-04-02T02:34:08.979Z,21
2023-04-02T02:35:18.816Z,26
2023-04-02T02:36:28.669Z,23
2023-04-02T02:37:40.466Z,23
2023-04-02T02:38:47.254Z,23
2023-04-02T02:39:59.785Z,23
2023-04-02T02:41:06.554Z,23
2023-04-02T02:42:16.166Z,23
2023-04-02T02:43:30.714Z,23
2023-04-02T02:44:37.474Z,24
2023-04-02T02:45:44.274Z,23
2023-04-02T02:46:50.996Z,23
2023-04-02T02:48:02.855Z,24
2023-04-02T02:49:09.616Z,24
2023-04-02T02:50:19.143Z,23
2023-04-02T02:51:26.013Z,24
2023-04-02T02:52:32.775Z,24
2023-04-02T02:53:40.644Z,24
2023-04-02T02:54:47.748Z,23
2023-04-02T02:55:57.573Z,22
2023-04-02T02:57:04.416Z,25
2023-04-02T02:58:11.216Z,25
2023-04-02T02:59:20.667Z,25
2023-04-02T03:00:27.650Z,24
2023-04-02T03:01:34.505Z,24
2023-04-02T03:02:41.357Z,23
2023-04-02T03:03:48.226Z,26
2023-04-02T03:04:54.931Z,25
2023-04-02T03:06:01.774Z,23
2023-04-02T03:07:08.687Z,24
2023-04-02T03:08:15.424Z,24
2023-04-02T03:09:22.187Z,26
2023-04-02T03:10:29.012Z,25
2023-04-02T03:11:40.989Z,25
2023-04-02T03:12:57.912Z,24
2023-04-02T03:14:12.414Z,26
2023-04-02T03:15:27.032Z,24
2023-04-02T03:16:36.817Z,24
2023-04-02T03:17:43.612Z,24
2023-04-02T03:18:53.166Z,25
2023-04-02T03:20:05.406Z,26
2023-04-02T03:21:22.320Z,27
2023-04-02T03:22:34.243Z,25
2023-04-02T03:23:41.091Z,26
2023-04-02T03:24:57.912Z,24
2023-04-02T03:26:09.833Z,25
2023-04-02T03:27:16.791Z,25
2023-04-02T03:28:23.667Z,26
2023-04-02T03:29:30.421Z,26
2023-04-02T03:30:37.308Z,28
2023-04-02T03:31:49.212Z,28
2023-04-02T03:33:01.037Z,28
2023-04-02T03:34:07.902Z,29
2023-04-02T03:35:14.707Z,30
2023-04-02T03:36:26.621Z,31
2023-04-02T03:37:38.421Z,34
2023-04-02T03:38:45.456Z,32
2023-04-02T03:39:57.278Z,34
2023-04-02T03:41:14.158Z,33
2023-04-02T03:42:28.994Z,33
2023-04-02T03:43:43.633Z,30
2023-04-02T03:44:50.404Z,36
2023-04-02T03:46:00.161Z,32
2023-04-02T03:47:09.905Z,34
2023-04-02T03:48:19.647Z,32
2023-04-02T03:49:29.412Z,33
2023-04-02T03:50:36.165Z,33
2023-04-02T03:51:51.001Z,32
2023-04-02T03:52:57.846Z,34
2023-04-02T03:54:04.714Z,34
2023-04-02T03:55:11.554Z,33
2023-04-02T03:56:18.352Z,35
2023-04-02T03:57:28.155Z,36
2023-04-02T03:58:42.971Z,38
2023-04-02T03:59:49.814Z,42
2023-04-02T04:01:01.799Z,37
2023-04-02T04:02:08.794Z,38
2023-04-02T04:03:23.581Z,39
2023-04-02T04:04:33.210Z,40
2023-04-02T04:05:40.125Z,37
2023-04-02T04:06:46.965Z,38
2023-04-02T04:07:53.783Z,38
2023-04-02T04:09:05.629Z,34
2023-04-02T04:10:12.403Z,33
2023-04-02T04:11:21.980Z,32
2023-04-02T04:12:28.797Z,35
2023-04-02T04:13:35.634Z,34
2023-04-02T04:14:47.546Z,32
2023-04-02T04:15:54.260Z,35
2023-04-02T04:17:01.236Z,29
2023-04-02T04:18:08.081Z,30
2023-04-02T04:19:24.923Z,31
2023-04-02T04:20:31.673Z,30
2023-04-02T04:21:43.509Z,30
2023-04-02T04:22:50.268Z,34
2023-04-02T04:23:57.177Z,31
2023-04-02T04:25:04.017Z,29
2023-04-02T04:26:10.933Z,30
2023-04-02T04:27:20.681Z,29
2023-04-02T04:28:27.469Z,27
2023-04-02T04:29:34.435Z,28
2023-04-02T04:30:51.308Z,28
2023-04-02T04:32:06.144Z,27
2023-04-02T04:33:18.029Z,27
2023-04-02T04:34:24.893Z,26
2023-04-02T04:35:34.800Z,27
2023-04-02T04:36:41.443Z,28
2023-04-02T04:37:53.912Z,27
2023-04-02T04:39:10.830Z,26
2023-04-02T04:40:17.708Z,27
2023-04-02T04:41:32.181Z,24
2023-04-02T04:42:39.047Z,26
2023-04-02T04:43:45.753Z,25
2023-04-02T04:44:55.283Z,26
2023-04-02T04:46:02.118Z,25
2023-04-02T04:47:08.918Z,26
2023-04-02T04:48:18.482Z,25
2023-04-02T04:49:28.412Z,24
2023-04-02T04:50:42.992Z,23
2023-04-02T04:51:52.426Z,25
2023-04-02T04:52:59.196Z,26
2023-04-02T04:54:09.139Z,27
2023-04-02T04:55:15.998Z,26
2023-04-02T04:56:27.764Z,26
2023-04-02T04:57:34.567Z,25
2023-04-02T04:58:41.371Z,27
2023-04-02T04:59:55.955Z,27
2023-04-02T05:01:07.863Z,26
2023-04-02T05:02:17.216Z,25
2023-04-02T05:03:26.874Z,26
2023-04-02T05:04:39.486Z,25
2023-04-02T05:05:46.257Z,28
2023-04-02T05:06:52.990Z,24
2023-04-02T05:08:09.873Z,24
2023-04-02T05:09:16.641Z,26
2023-04-02T05:10:33.705Z,21
2023-04-02T05:11:40.574Z,18
2023-04-02T05:12:47.415Z,19
2023-04-02T05:13:54.224Z,15
2023-04-02T05:15:00.988Z,14
2023-04-02T05:16:08.049Z,15
2023-04-02T05:17:19.856Z,13
2023-04-02T05:18:31.749Z,9
2023-04-02T05:19:43.637Z,10
2023-04-02T05:20:52.952Z,9
2023-04-02T05:22:09.917Z,8
2023-04-02T05:23:19.381Z,9
2023-04-02T05:24:31.771Z,8
2023-04-02T05:25:44.495Z,8
2023-04-02T05:26:59.265Z,8
2023-04-02T05:28:06.031Z,7
2023-04-02T05:29:23.106Z,7
2023-04-02T05:30:29.914Z,7
2023-04-02T05:31:44.544Z,7
2023-04-02T05:33:01.527Z,6
2023-04-02T05:34:08.417Z,6
2023-04-02T05:35:15.265Z,6
2023-04-02T05:36:22.159Z,7
2023-04-02T05:37:28.952Z,5
2023-04-02T05:38:35.728Z,5
2023-04-02T05:39:42.567Z,5
2023-04-02T05:40:49.322Z,5
2023-04-02T05:42:06.283Z,6
2023-04-02T05:43:13.060Z,5
2023-04-02T05:44:19.918Z,6
2023-04-02T05:45:34.747Z,5
2023-04-02T05:46:41.446Z,5
2023-04-02T05:47:58.332Z,5
2023-04-02T05:49:05.078Z,5
2023-04-02T05:50:11.910Z,5
2023-04-02T05:51:24.585Z,6
2023-04-02T05:52:33.981Z,5
2023-04-02T05:53:40.976Z,5
2023-04-02T05:54:52.835Z,4
2023-04-02T05:55:59.717Z,5
2023-04-02T05:57:16.706Z,4
2023-04-02T05:59:38.002Z,4
2023-04-02T06:00:44.758Z,4
2023-04-02T06:01:54.574Z,4
2023-04-02T06:03:14.401Z,6
2023-04-02T06:04:31.251Z,4
2023-04-02T06:05:38.078Z,6
2023-04-02T06:06:44.804Z,5
2023-04-02T06:07:54.639Z,4
2023-04-02T06:09:07.567Z,4
2023-04-02T06:10:14.354Z,4
2023-04-02T06:11:21.139Z,4
2023-04-02T06:12:31.026Z,4
2023-04-02T06:13:47.857Z,3
2023-04-02T06:14:54.603Z,4
2023-04-02T06:16:01.398Z,4
2023-04-02T06:17:08.416Z,3
2023-04-02T06:18:18.113Z,4
2023-04-02T06:19:27.591Z,4
2023-04-02T06:20:36.694Z,4
2023-04-02T06:21:44.625Z,4
2023-04-02T06:22:51.415Z,4
2023-04-02T06:24:00.966Z,4
2023-04-02T06:25:07.909Z,4
2023-04-02T06:26:19.678Z,4
2023-04-02T06:27:34.591Z,5
2023-04-02T06:28:41.526Z,5
2023-04-02T06:29:48.366Z,7
2023-04-02T06:30:55.159Z,9
2023-04-02T06:32:01.946Z,8
2023-04-02T06:33:11.552Z,11
2023-04-02T06:34:18.365Z,7
2023-04-02T06:35:25.317Z,11
2023-04-02T06:36:32.073Z,21
2023-04-02T06:37:38.966Z,19
2023-04-02T06:38:45.710Z,13
2023-04-02T06:39:52.489Z,9
2023-04-02T06:40:59.391Z,5
2023-04-02T06:42:06.272Z,4
2023-04-02T06:43:16.238Z,4
2023-04-02T06:44:33.092Z,3
2023-04-02T06:45:39.960Z,3
2023-04-02T06:46:46.886Z,3
2023-04-02T06:47:53.638Z,3
2023-04-02T06:49:00.504Z,3
2023-04-02T06:50:12.290Z,3
2023-04-02T06:51:21.950Z,3
2023-04-02T06:52:28.769Z,3
2023-04-02T06:53:38.328Z,3
2023-04-02T06:54:48.038Z,4
2023-04-02T06:55:54.853Z,5
2023-04-02T06:57:01.633Z,4
2023-04-02T06:58:08.523Z,4
2023-04-02T06:59:15.339Z,4
2023-04-02T07:00:22.298Z,6
2023-04-02T07:01:39.269Z,5
2023-04-02T07:02:46.220Z,4
2023-04-02T07:03:53.758Z,4
2023-04-02T07:05:00.948Z,4
2023-04-02T07:06:07.883Z,6
2023-04-02T07:07:17.477Z,6
2023-04-02T07:08:24.240Z,7
2023-04-02T07:09:31.088Z,7
2023-04-02T07:10:37.817Z,6
2023-04-02T07:11:44.596Z,4
2023-04-02T07:12:51.417Z,5
2023-04-02T07:13:58.450Z,4
2023-04-02T07:15:05.460Z,3
2023-04-02T07:16:12.520Z,3
2023-04-02T07:17:19.381Z,3
2023-04-02T07:18:26.109Z,4
2023-04-02T07:19:32.908Z,4
2023-04-02T07:20:39.756Z,4
2023-04-02T07:21:46.719Z,3
2023-04-02T07:22:53.527Z,4
2023-04-02T07:24:00.326Z,3
2023-04-02T07:25:07.271Z,3
2023-04-02T07:26:14.066Z,3
2023-04-02T07:27:20.950Z,5
2023-04-02T07:28:27.743Z,3
2023-04-02T07:29:34.594Z,3
2023-04-02T07:30:41.414Z,3
2023-04-02T07:31:48.300Z,4
2023-04-02T07:32:55.108Z,5
2023-04-02T07:34:01.904Z,4
2023-04-02T07:35:08.782Z,4
2023-04-02T07:36:15.646Z,4
2023-04-02T07:37:22.374Z,4
2023-04-02T07:38:29.265Z,3
2023-04-02T07:39:36.893Z,4
2023-04-02T07:40:42.882Z,3
2023-04-02T07:41:49.655Z,4
2023-04-02T07:42:56.414Z,4
2023-04-02T07:44:03.235Z,3
2023-04-02T07:45:09.995Z,3
2023-04-02T07:46:16.935Z,3
2023-04-02T07:47:23.567Z,4
2023-04-02T07:48:30.369Z,3
2023-04-02T07:49:37.184Z,3
2023-04-02T07:50:43.973Z,4
2023-04-02T07:51:50.903Z,4
2023-04-02T07:52:57.864Z,4
2023-04-02T07:54:04.713Z,3
2023-04-02T07:55:11.559Z,3
2023-04-02T07:56:18.353Z,4
2023-04-02T07:57:25.263Z,3
2023-04-02T07:58:31.952Z,4
2023-04-02T07:59:38.769Z,4
2023-04-02T08:00:45.588Z,5
2023-04-02T08:01:52.554Z,4
2023-04-02T08:02:59.347Z,4
2023-04-02T08:04:06.108Z,5
2023-04-02T08:05:17.974Z,4
2023-04-02T08:06:24.805Z,5
2023-04-02T08:07:31.521Z,5
2023-04-02T08:08:38.310Z,4
2023-04-02T08:09:45.166Z,5
2023-04-02T08:10:51.992Z,5
2023-04-02T08:11:58.801Z,3
2023-04-02T08:13:05.576Z,4
2023-04-02T08:14:12.363Z,3
2023-04-02T08:15:19.150Z,3
2023-04-02T08:16:25.954Z,5
2023-04-02T08:17:32.762Z,4
2023-04-02T08:18:39.471Z,3
2023-04-02T08:19:54.585Z,3
2023-04-02T08:20:53.325Z,3
2023-04-02T08:22:00.136Z,4
2023-04-02T08:23:06.893Z,3
2023-04-02T08:24:16.328Z,4
2023-04-02T08:25:23.176Z,3
2023-04-02T08:26:29.946Z,4
2023-04-02T08:27:36.709Z,4
2023-04-02T08:28:43.502Z,3
2023-04-02T08:29:50.218Z,5
2023-04-02T08:30:57.085Z,6
2023-04-02T08:32:03.750Z,6
2023-04-02T08:33:10.605Z,4
2023-04-02T08:34:17.297Z,6
2023-04-02T08:35:24.079Z,7
2023-04-02T08:36:30.841Z,21
2023-04-02T08:37:37.606Z,6
2023-04-02T08:38:44.476Z,85
2023-04-02T08:39:51.188Z,26
2023-04-02T08:40:57.975Z,8
2023-04-02T08:42:04.785Z,7
2023-04-02T08:43:23.095Z,5
2023-04-02T08:44:36.335Z,5
2023-04-02T08:45:45.852Z,5
2023-04-02T08:46:57.715Z,6
2023-04-02T08:48:07.569Z,4
2023-04-02T08:49:14.284Z,5
2023-04-02T08:50:21.085Z,5
2023-04-02T08:51:37.948Z,6
2023-04-02T08:52:44.701Z,6
2023-04-02T08:53:51.485Z,5
2023-04-02T08:55:03.396Z,4
2023-04-02T08:56:15.249Z,5
2023-04-02T08:57:27.115Z,5
2023-04-02T08:58:42.008Z,5
2023-04-02T08:59:51.608Z,4
2023-04-02T09:01:03.600Z,6
2023-04-02T09:02:10.494Z,5
2023-04-02T09:03:20.048Z,7
2023-04-02T09:04:31.904Z,5
2023-04-02T09:05:38.717Z,6
2023-04-02T09:06:45.484Z,5
2023-04-02T09:07:52.282Z,5
2023-04-02T09:08:59.016Z,5
2023-04-02T09:10:05.834Z,6
2023-04-02T09:11:20.692Z,5
2023-04-02T09:12:27.455Z,5
2023-04-02T09:13:34.207Z,5
2023-04-02T09:14:41.061Z,5
2023-04-02T09:15:47.881Z,4
2023-04-02T09:16:54.547Z,6
2023-04-02T09:18:07.017Z,6
2023-04-02T09:19:16.772Z,7
2023-04-02T09:20:26.087Z,6
2023-04-02T09:21:32.881Z,6
2023-04-02T09:22:39.681Z,5
2023-04-02T09:23:46.382Z,5
2023-04-02T09:24:53.208Z,7
2023-04-02T09:26:04.396Z,8
2023-04-02T09:27:20.170Z,7
2023-04-02T09:28:27.009Z,8
2023-04-02T09:29:33.814Z,7
2023-04-02T09:30:46.822Z,8
2023-04-02T09:32:03.749Z,7
2023-04-02T09:33:20.679Z,8
2023-04-02T09:34:37.607Z,7
2023-04-02T09:35:44.490Z,7
2023-04-02T09:36:54.008Z,9
2023-04-02T09:38:00.864Z,9
2023-04-02T09:39:10.451Z,9
2023-04-02T09:40:22.407Z,10
2023-04-02T09:41:29.355Z,12
2023-04-02T09:42:36.045Z,12
2023-04-02T09:43:42.840Z,11
2023-04-02T09:44:49.676Z,10
2023-04-02T09:45:56.476Z,9
2023-04-02T09:47:13.453Z,10
2023-04-02T09:48:26.186Z,11
2023-04-02T09:49:38.622Z,11
2023-04-02T09:50:45.434Z,11
2023-04-02T09:51:52.277Z,11
2023-04-02T09:53:09.356Z,12
2023-04-02T09:54:21.198Z,10
2023-04-02T09:55:27.975Z,11
2023-04-02T09:56:34.706Z,10
2023-04-02T09:57:41.599Z,10
2023-04-02T09:58:48.418Z,10
2023-04-02T10:00:05.337Z,11
2023-04-02T10:01:17.505Z,10
2023-04-02T10:02:29.410Z,8
2023-04-02T10:03:36.196Z,9
2023-04-02T10:04:43.088Z,9
2023-04-02T10:05:49.838Z,8
2023-04-02T10:07:01.683Z,9
2023-04-02T10:08:08.551Z,8
2023-04-02T10:09:18.184Z,8
2023-04-02T10:10:30.034Z,14
2023-04-02T10:11:46.488Z,23
2023-04-02T10:12:46.736Z,106
2023-04-02T10:14:01.499Z,48
2023-04-02T10:15:13.440Z,95
2023-04-02T10:16:20.346Z,205
2023-04-02T10:17:32.203Z,87
2023-04-02T10:18:39.101Z,15
2023-04-02T10:19:53.746Z,13
2023-04-02T10:21:05.553Z,8
2023-04-02T10:22:12.402Z,8
2023-04-02T10:23:19.255Z,13
2023-04-02T10:24:26.065Z,14
2023-04-02T10:25:32.808Z,8
2023-04-02T10:26:39.580Z,23
2023-04-02T10:27:46.348Z,21
2023-04-02T10:29:04.471Z,11
2023-04-02T10:30:15.098Z,7
2023-04-02T10:31:26.992Z,8
2023-04-02T10:32:41.392Z,8
2023-04-02T10:33:58.301Z,8
2023-04-02T10:35:08.000Z,7
2023-04-02T10:36:17.643Z,8
2023-04-02T10:37:29.486Z,7
2023-04-02T10:38:41.278Z,9
2023-04-02T10:39:55.938Z,8
2023-04-02T10:41:10.776Z,7
2023-04-02T10:42:23.529Z,7
2023-04-02T10:43:38.220Z,7
2023-04-02T10:44:50.086Z,8
2023-04-02T10:46:02.190Z,8
2023-04-02T10:47:19.069Z,8
2023-04-02T10:48:25.765Z,11
2023-04-02T10:49:42.799Z,9
2023-04-02T10:50:57.331Z,9
2023-04-02T10:52:04.213Z,9
2023-04-02T10:53:13.666Z,13
2023-04-02T10:54:20.399Z,11
2023-04-02T10:55:32.361Z,8
2023-04-02T10:56:48.228Z,8
2023-04-02T10:57:45.830Z,9
2023-04-02T10:58:52.618Z,9
2023-04-02T11:00:04.563Z,8
2023-04-02T11:01:11.731Z,8
2023-04-02T11:02:18.567Z,8
2023-04-02T11:03:27.942Z,8
2023-04-02T11:04:39.946Z,8
2023-04-02T11:05:47.001Z,7
2023-04-02T11:07:00.803Z,10
2023-04-02T11:08:04.141Z,9
2023-04-02T11:09:18.977Z,7
2023-04-02T11:10:28.777Z,8
2023-04-02T11:11:35.825Z,8
2023-04-02T11:12:42.736Z,7
2023-04-02T11:13:49.589Z,8
2023-04-02T11:15:02.077Z,9
2023-04-02T11:16:09.233Z,7
2023-04-02T11:17:15.977Z,8
2023-04-02T11:18:22.724Z,8
2023-04-02T11:19:32.489Z,10
2023-04-02T11:20:39.709Z,8
2023-04-02T11:21:58.428Z,8
2023-04-02T11:23:03.820Z,10
2023-04-02T11:24:13.509Z,10
2023-04-02T11:25:28.042Z,11
2023-04-02T11:26:34.793Z,8
2023-04-02T11:27:47.144Z,8
2023-04-02T11:28:53.896Z,7
2023-04-02T11:30:03.559Z,6
2023-04-02T11:31:10.630Z,6
2023-04-02T11:32:17.416Z,8
2023-04-02T11:33:30.126Z,8
2023-04-02T11:34:33.970Z,8
2023-04-02T11:35:43.717Z,14
2023-04-02T11:36:50.533Z,12
2023-04-02T11:37:57.347Z,20
2023-04-02T11:39:17.230Z,13
2023-04-02T11:40:23.999Z,13
2023-04-02T11:41:35.822Z,12
2023-04-02T11:42:52.860Z,10
2023-04-02T11:43:59.795Z,9
2023-04-02T11:45:06.582Z,11
2023-04-02T11:46:21.246Z,11
2023-04-02T11:47:33.095Z,9
2023-04-02T11:48:40.013Z,7
2023-04-02T11:49:46.753Z,8
2023-04-02T11:50:58.596Z,6
2023-04-02T11:52:18.602Z,6
2023-04-02T11:53:28.439Z,12
2023-04-02T11:54:35.217Z,10
2023-04-02T11:55:42.035Z,10
2023-04-02T11:56:56.684Z,8
2023-04-02T11:58:03.499Z,9
2023-04-02T11:59:20.599Z,8
2023-04-02T12:00:35.400Z,8
2023-04-02T12:01:52.123Z,8
2023-04-02T12:03:06.989Z,8
2023-04-02T12:04:23.865Z,9
2023-04-02T12:05:40.931Z,8
2023-04-02T12:06:57.857Z,8
2023-04-02T12:08:12.516Z,9
2023-04-02T12:09:22.224Z,11
2023-04-02T12:10:31.687Z,12
2023-04-02T12:11:43.548Z,13
2023-04-02T12:12:50.353Z,11
2023-04-02T12:13:57.228Z,12
2023-04-02T12:15:04.051Z,12
2023-04-02T12:16:16.174Z,13
2023-04-02T12:17:22.913Z,14
2023-04-02T12:18:38.046Z,12
2023-04-02T12:19:44.944Z,10
2023-04-02T12:20:57.217Z,10
2023-04-02T12:22:04.195Z,10
2023-04-02T12:23:11.064Z,12
2023-04-02T12:24:25.744Z,12
2023-04-02T12:25:32.650Z,9
2023-04-02T12:26:39.556Z,10
2023-04-02T12:27:46.329Z,10
2023-04-02T12:29:03.280Z,12
2023-04-02T12:30:20.242Z,14
2023-04-02T12:31:27.149Z,12
2023-04-02T12:32:33.857Z,10
2023-04-02T12:33:40.766Z,11
2023-04-02T12:36:33.128Z,11
2023-04-02T12:37:39.927Z,10
2023-04-02T12:38:46.767Z,8
2023-04-02T12:39:53.673Z,9
2023-04-02T12:41:03.644Z,9
2023-04-02T12:42:10.435Z,12
2023-04-02T12:43:27.462Z,10
2023-04-02T12:44:37.079Z,10
2023-04-02T12:45:43.870Z,10
2023-04-02T12:46:50.669Z,12
2023-04-02T12:47:57.512Z,11
2023-04-02T12:49:04.347Z,11
2023-04-02T12:50:11.190Z,9
2023-04-02T12:51:18.102Z,9
2023-04-02T12:52:24.906Z,9
2023-04-02T12:53:32.278Z,8
2023-04-02T12:54:39.457Z,7
2023-04-02T12:55:51.456Z,8
2023-04-02T12:56:58.487Z,8
2023-04-02T12:58:15.362Z,9
2023-04-02T12:59:30.310Z,9
2023-04-02T13:00:37.442Z,10
2023-04-02T13:01:44.156Z,12
2023-04-02T13:02:58.813Z,12
2023-04-02T13:04:10.580Z,8
2023-04-02T13:05:17.340Z,10
2023-04-02T13:06:34.224Z,9
2023-04-02T13:07:41.045Z,9
2023-04-02T13:08:47.816Z,10
2023-04-02T13:09:54.602Z,10
2023-04-02T13:11:01.543Z,9
2023-04-02T13:12:08.393Z,9
2023-04-02T13:13:25.396Z,9
2023-04-02T13:14:39.863Z,9
2023-04-02T13:15:46.725Z,9
2023-04-02T13:17:03.699Z,8
2023-04-02T13:18:10.535Z,7
2023-04-02T13:19:20.036Z,8
2023-04-02T13:20:26.859Z,8
2023-04-02T13:21:36.156Z,8
2023-04-02T13:22:43.049Z,8
2023-04-02T13:23:49.963Z,8
2023-04-02T13:24:56.791Z,8
2023-04-02T13:26:03.538Z,9
2023-04-02T13:27:20.435Z,10
2023-04-02T13:28:27.318Z,9
2023-04-02T13:29:34.321Z,9
2023-04-02T13:30:41.007Z,9
2023-04-02T13:31:47.921Z,9
2023-04-02T13:32:54.788Z,8
2023-04-02T13:34:01.571Z,10
2023-04-02T13:35:08.311Z,9
2023-04-02T13:36:15.173Z,9
2023-04-02T13:37:22.012Z,8
2023-04-02T13:38:28.763Z,8
2023-04-02T13:39:35.521Z,9
2023-04-02T13:40:42.380Z,9
2023-04-02T13:41:49.172Z,9
2023-04-02T13:42:58.823Z,8
2023-04-02T13:44:05.623Z,7
2023-04-02T13:45:12.420Z,9
2023-04-02T13:46:27.126Z,8
2023-04-02T13:47:33.936Z,9
2023-04-02T13:48:40.715Z,9
2023-04-02T13:49:47.482Z,9
2023-04-02T13:50:54.286Z,8
2023-04-02T13:52:01.100Z,8
2023-04-02T13:53:10.350Z,9
2023-04-02T13:54:22.714Z,9
2023-04-02T13:55:29.528Z,9
2023-04-02T13:56:39.386Z,9
2023-04-02T13:57:46.152Z,9
2023-04-02T13:58:52.939Z,9
2023-04-02T13:59:59.728Z,10
2023-04-02T14:01:06.723Z,10
2023-04-02T14:02:13.538Z,10
2023-04-02T14:03:20.299Z,10
2023-04-02T14:04:27.070Z,10
2023-04-02T14:05:33.893Z,9
2023-04-02T14:06:48.799Z,9
2023-04-02T14:08:01.605Z,9
2023-04-02T14:09:16.185Z,9
2023-04-02T14:10:25.684Z,10
2023-04-02T14:11:32.515Z,10
2023-04-02T14:12:45.114Z,9
2023-04-02T14:14:02.067Z,10
2023-04-02T14:15:11.937Z,9
2023-04-02T14:16:28.847Z,9
2023-04-02T14:17:43.806Z,9
2023-04-02T14:19:00.709Z,9
2023-04-02T14:20:15.317Z,9
2023-04-02T14:21:27.226Z,10
2023-04-02T14:22:39.182Z,10
2023-04-02T14:23:53.889Z,10
2023-04-02T14:25:10.774Z,10
2023-04-02T14:26:25.151Z,9
2023-04-02T14:27:39.049Z,10
2023-04-02T14:28:43.819Z,10
2023-04-02T14:29:56.334Z,9
2023-04-02T14:31:08.123Z,9
2023-04-02T14:32:25.078Z,12
2023-04-02T14:33:34.572Z,12
2023-04-02T14:34:51.527Z,12
2023-04-02T14:36:03.379Z,12
2023-04-02T14:37:13.827Z,11
2023-04-02T14:38:30.011Z,11
2023-04-02T14:39:36.856Z,11
2023-04-02T14:40:46.373Z,12
2023-04-02T14:41:53.186Z,11
2023-04-02T14:43:05.028Z,10
2023-04-02T14:44:21.951Z,11
2023-04-02T14:45:28.809Z,10
2023-04-02T14:46:37.343Z,11
2023-04-02T14:47:42.529Z,11
2023-04-02T14:48:49.377Z,14
2023-04-02T14:49:58.876Z,12
2023-04-02T14:51:05.620Z,10
2023-04-02T14:52:17.461Z,11
2023-04-02T14:53:24.241Z,11
2023-04-02T14:54:33.544Z,12
2023-04-02T14:55:45.416Z,12
2023-04-02T14:56:52.373Z,11
2023-04-02T14:58:02.028Z,16
2023-04-02T14:59:08.828Z,17
2023-04-02T15:00:20.734Z,17
2023-04-02T15:01:32.682Z,23
2023-04-02T15:02:39.574Z,24
2023-04-02T15:03:49.064Z,17
2023-04-02T15:05:01.670Z,12
2023-04-02T15:06:17.943Z,12
2023-04-02T15:07:27.551Z,11
2023-04-02T15:08:36.880Z,11
2023-04-02T15:09:48.683Z,13
2023-04-02T15:11:03.720Z,15
2023-04-02T15:12:12.404Z,17
2023-04-02T15:13:22.277Z,14
2023-04-02T15:14:34.781Z,13
2023-04-02T15:15:41.648Z,14
2023-04-02T15:16:56.603Z,13
2023-04-02T15:18:03.527Z,13
2023-04-02T15:19:15.798Z,13
2023-04-02T15:20:22.671Z,14
2023-04-02T15:21:29.514Z,13
2023-04-02T15:22:44.042Z,17
2023-04-02T15:23:55.860Z,15
2023-04-02T15:25:05.431Z,16
2023-04-02T15:26:22.416Z,13
2023-04-02T15:27:36.985Z,15
2023-04-02T15:28:53.947Z,15
2023-04-02T15:30:00.850Z,11
2023-04-02T15:31:15.497Z,10
2023-04-02T15:32:22.311Z,11
2023-04-02T15:33:37.025Z,14
2023-04-02T15:34:47.090Z,13
2023-04-02T15:36:04.006Z,13
2023-04-02T15:37:20.892Z,12
2023-04-02T15:38:32.786Z,13
2023-04-02T15:39:44.623Z,16
2023-04-02T15:40:56.426Z,15
2023-04-02T15:42:08.400Z,16
2023-04-02T15:43:25.312Z,18
2023-04-02T15:44:32.182Z,13
2023-04-02T15:45:39.119Z,20
2023-04-02T15:46:53.483Z,17
2023-04-02T15:48:10.429Z,17
2023-04-02T15:49:27.414Z,13
2023-04-02T15:50:42.844Z,12
2023-04-02T15:51:56.364Z,18
2023-04-02T15:53:10.813Z,17
2023-04-02T15:54:22.607Z,14
2023-04-02T15:55:34.492Z,16
2023-04-02T15:56:41.322Z,16
2023-04-02T15:57:55.788Z,15
2023-04-02T15:59:08.033Z,12
2023-04-02T16:00:14.985Z,13
2023-04-02T16:01:26.960Z,14
2023-04-02T16:02:38.813Z,16
2023-04-02T16:03:53.470Z,14
2023-04-02T16:05:08.160Z,15
2023-04-02T16:06:17.926Z,15
2023-04-02T16:07:29.934Z,16
2023-04-02T16:08:41.801Z,14
2023-04-02T16:09:58.763Z,14
2023-04-02T16:11:13.263Z,14
2023-04-02T16:12:20.263Z,18
2023-04-02T16:13:27.118Z,15
2023-04-02T16:14:36.875Z,14
2023-04-02T16:15:43.618Z,10
2023-04-02T16:16:58.486Z,13
2023-04-02T16:18:08.208Z,13
2023-04-02T16:19:17.831Z,13
2023-04-02T16:20:34.954Z,12
2023-04-02T16:21:44.232Z,13
2023-04-02T16:23:00.314Z,12
2023-04-02T16:24:05.845Z,11
2023-04-02T16:25:12.693Z,15
2023-04-02T16:26:19.501Z,16
2023-04-02T16:27:29.247Z,16
2023-04-02T16:28:36.077Z,15
2023-04-02T16:29:51.332Z,15
2023-04-02T16:30:54.816Z,17
2023-04-02T16:32:06.616Z,12
2023-04-02T16:33:20.958Z,13
2023-04-02T16:34:32.898Z,13
2023-04-02T16:35:47.846Z,13
2023-04-02T16:36:54.619Z,13
2023-04-02T16:38:04.337Z,12
2023-04-02T16:39:21.241Z,12
2023-04-02T16:40:35.758Z,11
2023-04-02T16:41:47.547Z,16
2023-04-02T16:43:02.238Z,15
2023-04-02T16:44:19.204Z,14
2023-04-02T16:45:31.022Z,14
2023-04-02T16:46:47.981Z,16
2023-04-02T16:48:00.655Z,16
2023-04-02T16:49:12.520Z,15